sensor_id;sensor_type;location;lat;lon;timestamp;P1;durP1;ratioP1;P2;durP2;ratioP2
4428;SDS011;2227;47.810;8.810;2023-10-31T04:49:21;751.05;;;719.95;;
4428;SDS011;2227;47.810;8.810;2023-10-31T04:51:48;745.05;;;715.28;;
4428;SDS011;2227;47.810;8.810;2023-10-31T04:54:15;747.38;;;715.15;;
4428;SDS011;2227;47.810;8.810;2023-10-31T04:56:41;748.95;;;716.83;;
4428;SDS011;2227;47.810;8.810;2023-10-31T04:59:08;751.38;;;721.58;;
4428;SDS011;2227;47.810;8.810;2023-10-31T05:01:35;722.30;;;697.53;;
4428;SDS011;2227;47.810;8.810;2023-10-31T05:04:02;730.47;;;704.95;;
4428;SDS011;2227;47.810;8.810;2023-10-31T05:06:38;759.47;;;730.13;;
4428;SDS011;2227;47.810;8.810;2023-10-31T05:09:05;751.22;;;723.97;;
4428;SDS011;2227;47.810;8.810;2023-10-31T05:11:32;725.72;;;700.15;;
4428;SDS011;2227;47.810;8.810;2023-10-31T05:13:59;749.65;;;722.38;;
4428;SDS011;2227;47.810;8.810;2023-10-31T05:16:26;764.28;;;732.95;;
4428;SDS011;2227;47.810;8.810;2023-10-31T05:18:53;750.92;;;720.72;;
4428;SDS011;2227;47.810;8.810;2023-10-31T05:21:19;743.25;;;713.60;;
4428;SDS011;2227;47.810;8.810;2023-10-31T05:23:47;745.30;;;712.63;;
4428;SDS011;2227;47.810;8.810;2023-10-31T05:26:13;752.15;;;718.15;;
4428;SDS011;2227;47.810;8.810;2023-10-31T05:28:40;754.72;;;721.95;;
4428;SDS011;2227;47.810;8.810;2023-10-31T05:31:07;744.63;;;713.55;;
4428;SDS011;2227;47.810;8.810;2023-10-31T05:33:34;757.40;;;723.88;;
4428;SDS011;2227;47.810;8.810;2023-10-31T05:36:01;746.28;;;715.17;;
4428;SDS011;2227;47.810;8.810;2023-10-31T05:38:28;735.00;;;707.63;;
4428;SDS011;2227;47.810;8.810;2023-10-31T05:40:55;738.55;;;711.10;;
4428;SDS011;2227;47.810;8.810;2023-10-31T05:43:21;742.97;;;713.03;;
4428;SDS011;2227;47.810;8.810;2023-10-31T05:45:48;746.20;;;715.20;;
4428;SDS011;2227;47.810;8.810;2023-10-31T05:48:15;741.85;;;710.95;;
4428;SDS011;2227;47.810;8.810;2023-10-31T05:50:42;743.50;;;712.00;;
4428;SDS011;2227;47.810;8.810;2023-10-31T05:53:09;748.50;;;716.67;;
4428;SDS011;2227;47.810;8.810;2023-10-31T05:55:41;728.22;;;700.88;;
4428;SDS011;2227;47.810;8.810;2023-10-31T05:58:07;732.73;;;703.93;;
4428;SDS011;2227;47.810;8.810;2023-10-31T06:00:34;742.40;;;711.33;;
4428;SDS011;2227;47.810;8.810;2023-10-31T06:03:01;736.13;;;706.53;;
4428;SDS011;2227;47.810;8.810;2023-10-31T06:05:28;731.20;;;703.78;;
4428;SDS011;2227;47.810;8.810;2023-10-31T06:07:55;734.17;;;706.73;;
4428;SDS011;2227;47.810;8.810;2023-10-31T06:10:22;725.72;;;699.15;;
4428;SDS011;2227;47.810;8.810;2023-10-31T06:12:49;738.72;;;710.78;;
4428;SDS011;2227;47.810;8.810;2023-10-31T06:15:16;728.20;;;702.20;;
4428;SDS011;2227;47.810;8.810;2023-10-31T06:17:42;748.70;;;719.47;;
4428;SDS011;2227;47.810;8.810;2023-10-31T06:20:09;743.80;;;716.53;;
4428;SDS011;2227;47.810;8.810;2023-10-31T06:22:37;743.78;;;715.13;;
4428;SDS011;2227;47.810;8.810;2023-10-31T06:25:04;732.88;;;706.15;;
4428;SDS011;2227;47.810;8.810;2023-10-31T06:27:31;735.42;;;708.83;;
4428;SDS011;2227;47.810;8.810;2023-10-31T06:29:57;729.45;;;703.53;;
4428;SDS011;2227;47.810;8.810;2023-10-31T06:32:42;737.88;;;711.45;;
4428;SDS011;2227;47.810;8.810;2023-10-31T06:35:08;736.65;;;708.95;;
4428;SDS011;2227;47.810;8.810;2023-10-31T06:37:35;748.58;;;718.90;;
4428;SDS011;2227;47.810;8.810;2023-10-31T06:40:03;751.67;;;719.13;;
4428;SDS011;2227;47.810;8.810;2023-10-31T06:42:30;735.28;;;705.83;;
4428;SDS011;2227;47.810;8.810;2023-10-31T06:44:57;729.63;;;701.55;;
4428;SDS011;2227;47.810;8.810;2023-10-31T06:47:24;741.30;;;710.53;;
4428;SDS011;2227;47.810;8.810;2023-10-31T06:49:51;733.15;;;704.75;;
4428;SDS011;2227;47.810;8.810;2023-10-31T06:52:18;731.95;;;703.97;;
4428;SDS011;2227;47.810;8.810;2023-10-31T06:54:44;731.97;;;703.97;;
4428;SDS011;2227;47.810;8.810;2023-10-31T06:57:11;735.78;;;706.60;;
4428;SDS011;2227;47.810;8.810;2023-10-31T06:59:38;722.17;;;696.28;;
4428;SDS011;2227;47.810;8.810;2023-10-31T07:02:05;714.40;;;687.63;;
4428;SDS011;2227;47.810;8.810;2023-10-31T07:04:32;593.40;;;573.97;;
4428;SDS011;2227;47.810;8.810;2023-10-31T07:06:59;749.83;;;714.13;;
4428;SDS011;2227;47.810;8.810;2023-10-31T07:09:26;758.88;;;723.10;;
4428;SDS011;2227;47.810;8.810;2023-10-31T07:11:53;749.25;;;715.72;;
4428;SDS011;2227;47.810;8.810;2023-10-31T07:14:20;737.40;;;707.05;;
4428;SDS011;2227;47.810;8.810;2023-10-31T07:16:47;737.25;;;706.28;;
4428;SDS011;2227;47.810;8.810;2023-10-31T07:19:15;746.58;;;714.55;;
4428;SDS011;2227;47.810;8.810;2023-10-31T07:21:42;746.60;;;715.03;;
4428;SDS011;2227;47.810;8.810;2023-10-31T07:24:09;776.72;;;731.80;;
4428;SDS011;2227;47.810;8.810;2023-10-31T07:26:35;772.35;;;730.75;;
4428;SDS011;2227;47.810;8.810;2023-10-31T07:29:02;744.30;;;716.38;;
4428;SDS011;2227;47.810;8.810;2023-10-31T07:31:29;762.35;;;729.80;;
4428;SDS011;2227;47.810;8.810;2023-10-31T07:33:56;742.23;;;713.17;;
4428;SDS011;2227;47.810;8.810;2023-10-31T07:36:23;640.20;;;614.77;;
4428;SDS011;2227;47.810;8.810;2023-10-31T07:38:50;705.45;;;679.88;;
4428;SDS011;2227;47.810;8.810;2023-10-31T07:41:16;760.38;;;728.22;;
4428;SDS011;2227;47.810;8.810;2023-10-31T07:43:43;719.60;;;694.78;;
4428;SDS011;2227;47.810;8.810;2023-10-31T07:46:10;747.97;;;719.35;;
4428;SDS011;2227;47.810;8.810;2023-10-31T07:48:37;730.33;;;704.30;;
4428;SDS011;2227;47.810;8.810;2023-10-31T07:51:04;749.92;;;722.38;;
4428;SDS011;2227;47.810;8.810;2023-10-31T07:53:31;718.75;;;694.28;;
4428;SDS011;2227;47.810;8.810;2023-10-31T07:55:57;606.78;;;586.55;;
4428;SDS011;2227;47.810;8.810;2023-10-31T07:58:24;763.00;;;733.83;;
4428;SDS011;2227;47.810;8.810;2023-10-31T08:00:51;748.70;;;720.65;;
4428;SDS011;2227;47.810;8.810;2023-10-31T08:03:18;748.28;;;720.92;;
4428;SDS011;2227;47.810;8.810;2023-10-31T08:05:45;758.05;;;729.15;;
4428;SDS011;2227;47.810;8.810;2023-10-31T08:08:12;759.28;;;731.08;;
4428;SDS011;2227;47.810;8.810;2023-10-31T08:10:39;758.42;;;729.70;;
4428;SDS011;2227;47.810;8.810;2023-10-31T08:13:05;743.30;;;716.67;;
4428;SDS011;2227;47.810;8.810;2023-10-31T08:15:32;747.20;;;720.28;;
4428;SDS011;2227;47.810;8.810;2023-10-31T08:17:59;741.67;;;713.25;;
4428;SDS011;2227;47.810;8.810;2023-10-31T08:20:26;745.85;;;717.55;;
4428;SDS011;2227;47.810;8.810;2023-10-31T08:22:59;758.67;;;729.65;;
4428;SDS011;2227;47.810;8.810;2023-10-31T08:25:25;746.40;;;718.78;;
4428;SDS011;2227;47.810;8.810;2023-10-31T08:27:52;746.05;;;719.00;;
4428;SDS011;2227;47.810;8.810;2023-10-31T08:30:19;748.17;;;720.87;;
4428;SDS011;2227;47.810;8.810;2023-10-31T08:32:46;749.17;;;721.80;;
4428;SDS011;2227;47.810;8.810;2023-10-31T08:35:13;754.33;;;726.67;;
4428;SDS011;2227;47.810;8.810;2023-10-31T08:37:41;763.05;;;733.60;;
4428;SDS011;2227;47.810;8.810;2023-10-31T08:40:08;755.15;;;726.17;;
4428;SDS011;2227;47.810;8.810;2023-10-31T08:42:36;765.00;;;736.15;;
4428;SDS011;2227;47.810;8.810;2023-10-31T08:45:04;752.53;;;725.63;;
4428;SDS011;2227;47.810;8.810;2023-10-31T08:47:31;746.70;;;719.53;;
4428;SDS011;2227;47.810;8.810;2023-10-31T08:49:58;763.38;;;734.63;;
4428;SDS011;2227;47.810;8.810;2023-10-31T08:52:24;744.05;;;717.90;;
4428;SDS011;2227;47.810;8.810;2023-10-31T08:54:51;710.53;;;686.47;;
4428;SDS011;2227;47.810;8.810;2023-10-31T08:57:18;729.30;;;704.40;;
4428;SDS011;2227;47.810;8.810;2023-10-31T08:59:45;675.67;;;652.97;;
4428;SDS011;2227;47.810;8.810;2023-10-31T09:02:12;713.03;;;688.80;;
4428;SDS011;2227;47.810;8.810;2023-10-31T09:04:38;706.03;;;682.00;;
4428;SDS011;2227;47.810;8.810;2023-10-31T09:07:05;744.37;;;718.40;;
4428;SDS011;2227;47.810;8.810;2023-10-31T09:09:32;721.27;;;696.50;;
4428;SDS011;2227;47.810;8.810;2023-10-31T09:11:59;730.33;;;705.17;;
4428;SDS011;2227;47.810;8.810;2023-10-31T09:14:26;769.90;;;742.47;;
4428;SDS011;2227;47.810;8.810;2023-10-31T09:16:52;801.60;;;769.25;;
4428;SDS011;2227;47.810;8.810;2023-10-31T09:19:19;792.10;;;761.17;;
4428;SDS011;2227;47.810;8.810;2023-10-31T09:21:46;790.67;;;760.13;;
4428;SDS011;2227;47.810;8.810;2023-10-31T09:24:13;773.90;;;745.90;;
4428;SDS011;2227;47.810;8.810;2023-10-31T09:26:43;786.95;;;757.97;;
4428;SDS011;2227;47.810;8.810;2023-10-31T09:29:10;775.40;;;747.35;;
4428;SDS011;2227;47.810;8.810;2023-10-31T09:31:53;785.35;;;756.75;;
4428;SDS011;2227;47.810;8.810;2023-10-31T09:34:20;843.97;;;798.85;;
4428;SDS011;2227;47.810;8.810;2023-10-31T09:36:47;838.97;;;794.58;;
4428;SDS011;2227;47.810;8.810;2023-10-31T09:39:24;754.35;;;721.90;;
4428;SDS011;2227;47.810;8.810;2023-10-31T09:42:01;708.05;;;683.97;;
4428;SDS011;2227;47.810;8.810;2023-10-31T09:44:28;844.72;;;802.08;;
4428;SDS011;2227;47.810;8.810;2023-10-31T09:46:54;845.55;;;802.28;;
4428;SDS011;2227;47.810;8.810;2023-10-31T09:49:23;824.00;;;784.03;;
4428;SDS011;2227;47.810;8.810;2023-10-31T09:51:50;836.22;;;793.20;;
4428;SDS011;2227;47.810;8.810;2023-10-31T09:54:17;831.13;;;791.58;;
4428;SDS011;2227;47.810;8.810;2023-10-31T09:56:44;835.03;;;793.63;;
4428;SDS011;2227;47.810;8.810;2023-10-31T09:59:13;822.73;;;783.00;;
4428;SDS011;2227;47.810;8.810;2023-10-31T10:01:41;816.13;;;779.65;;
4428;SDS011;2227;47.810;8.810;2023-10-31T10:04:08;846.33;;;801.20;;
4428;SDS011;2227;47.810;8.810;2023-10-31T10:06:39;851.03;;;804.70;;
4428;SDS011;2227;47.810;8.810;2023-10-31T10:09:24;846.07;;;800.47;;
4428;SDS011;2227;47.810;8.810;2023-10-31T10:11:52;835.25;;;791.95;;
4428;SDS011;2227;47.810;8.810;2023-10-31T10:14:24;833.65;;;792.65;;
4428;SDS011;2227;47.810;8.810;2023-10-31T10:16:54;846.83;;;803.20;;
4428;SDS011;2227;47.810;8.810;2023-10-31T10:19:22;857.75;;;812.33;;
4428;SDS011;2227;47.810;8.810;2023-10-31T10:21:53;830.50;;;790.92;;
4428;SDS011;2227;47.810;8.810;2023-10-31T10:24:22;848.50;;;807.90;;
4428;SDS011;2227;47.810;8.810;2023-10-31T10:26:50;852.15;;;810.42;;
4428;SDS011;2227;47.810;8.810;2023-10-31T10:29:17;838.00;;;800.45;;
4428;SDS011;2227;47.810;8.810;2023-10-31T10:31:44;847.38;;;809.35;;
4428;SDS011;2227;47.810;8.810;2023-10-31T10:34:15;612.37;;;588.20;;
4428;SDS011;2227;47.810;8.810;2023-10-31T10:36:47;872.58;;;835.15;;
4428;SDS011;2227;47.810;8.810;2023-10-31T10:39:19;877.90;;;840.97;;
4428;SDS011;2227;47.810;8.810;2023-10-31T10:41:56;592.47;;;569.35;;
4428;SDS011;2227;47.810;8.810;2023-10-31T10:44:33;3.03;;;0.83;;
4428;SDS011;2227;47.810;8.810;2023-10-31T10:47:05;616.88;;;572.40;;
4428;SDS011;2227;47.810;8.810;2023-10-31T10:49:36;751.03;;;718.72;;
4428;SDS011;2227;47.810;8.810;2023-10-31T10:52:10;803.10;;;755.53;;
4428;SDS011;2227;47.810;8.810;2023-10-31T10:54:44;817.88;;;767.70;;
4428;SDS011;2227;47.810;8.810;2023-10-31T10:57:15;808.88;;;762.90;;
4428;SDS011;2227;47.810;8.810;2023-10-31T10:59:58;814.37;;;768.17;;
4428;SDS011;2227;47.810;8.810;2023-10-31T11:02:30;814.65;;;771.00;;
4428;SDS011;2227;47.810;8.810;2023-10-31T11:04:58;817.10;;;773.42;;
4428;SDS011;2227;47.810;8.810;2023-10-31T11:07:25;816.33;;;773.67;;
4428;SDS011;2227;47.810;8.810;2023-10-31T11:09:55;806.78;;;765.08;;
4428;SDS011;2227;47.810;8.810;2023-10-31T11:12:22;818.75;;;774.83;;
4428;SDS011;2227;47.810;8.810;2023-10-31T11:14:49;805.03;;;761.20;;
4428;SDS011;2227;47.810;8.810;2023-10-31T11:17:24;802.20;;;757.58;;
4428;SDS011;2227;47.810;8.810;2023-10-31T11:19:54;791.37;;;745.90;;
4428;SDS011;2227;47.810;8.810;2023-10-31T11:22:22;778.53;;;733.65;;
4428;SDS011;2227;47.810;8.810;2023-10-31T11:24:51;747.65;;;704.53;;
4428;SDS011;2227;47.810;8.810;2023-10-31T11:27:18;740.85;;;700.25;;
4428;SDS011;2227;47.810;8.810;2023-10-31T11:29:45;740.80;;;699.00;;
4428;SDS011;2227;47.810;8.810;2023-10-31T11:32:14;731.30;;;691.80;;
4428;SDS011;2227;47.810;8.810;2023-10-31T11:34:41;735.53;;;695.00;;
4428;SDS011;2227;47.810;8.810;2023-10-31T11:37:25;737.60;;;694.70;;
4428;SDS011;2227;47.810;8.810;2023-10-31T11:42:40;732.42;;;691.88;;
4428;SDS011;2227;47.810;8.810;2023-10-31T11:45:07;728.95;;;690.78;;
4428;SDS011;2227;47.810;8.810;2023-10-31T11:47:50;731.15;;;692.10;;
4428;SDS011;2227;47.810;8.810;2023-10-31T11:50:17;727.55;;;689.05;;
4428;SDS011;2227;47.810;8.810;2023-10-31T11:52:44;730.85;;;691.22;;
4428;SDS011;2227;47.810;8.810;2023-10-31T11:55:23;717.88;;;680.80;;
4428;SDS011;2227;47.810;8.810;2023-10-31T11:57:51;724.83;;;686.65;;
4428;SDS011;2227;47.810;8.810;2023-10-31T12:00:21;728.73;;;690.23;;
4428;SDS011;2227;47.810;8.810;2023-10-31T12:02:58;731.08;;;691.25;;
4428;SDS011;2227;47.810;8.810;2023-10-31T12:05:25;726.23;;;687.70;;
4428;SDS011;2227;47.810;8.810;2023-10-31T12:07:53;718.13;;;682.28;;
4428;SDS011;2227;47.810;8.810;2023-10-31T12:10:24;729.27;;;690.57;;
4428;SDS011;2227;47.810;8.810;2023-10-31T12:12:53;722.60;;;685.73;;
4428;SDS011;2227;47.810;8.810;2023-10-31T12:15:19;734.63;;;696.75;;
4428;SDS011;2227;47.810;8.810;2023-10-31T12:17:46;734.97;;;697.55;;
4428;SDS011;2227;47.810;8.810;2023-10-31T12:20:13;738.33;;;700.03;;
4428;SDS011;2227;47.810;8.810;2023-10-31T12:22:40;740.45;;;702.20;;
4428;SDS011;2227;47.810;8.810;2023-10-31T12:25:07;770.60;;;729.90;;
4428;SDS011;2227;47.810;8.810;2023-10-31T12:28:08;778.95;;;738.20;;
4428;SDS011;2227;47.810;8.810;2023-10-31T12:30:28;787.53;;;744.00;;
4428;SDS011;2227;47.810;8.810;2023-10-31T12:32:55;783.13;;;738.72;;
4428;SDS011;2227;47.810;8.810;2023-10-31T12:35:23;780.90;;;737.37;;
4428;SDS011;2227;47.810;8.810;2023-10-31T12:37:51;749.72;;;708.05;;
4428;SDS011;2227;47.810;8.810;2023-10-31T12:40:19;751.23;;;708.67;;
4428;SDS011;2227;47.810;8.810;2023-10-31T12:42:47;756.00;;;711.22;;
4428;SDS011;2227;47.810;8.810;2023-10-31T12:45:16;748.47;;;705.60;;
4428;SDS011;2227;47.810;8.810;2023-10-31T12:47:44;739.92;;;698.92;;
4428;SDS011;2227;47.810;8.810;2023-10-31T12:50:26;747.75;;;706.25;;
4428;SDS011;2227;47.810;8.810;2023-10-31T12:52:53;747.07;;;705.50;;
4428;SDS011;2227;47.810;8.810;2023-10-31T12:55:22;756.33;;;709.60;;
4428;SDS011;2227;47.810;8.810;2023-10-31T12:57:50;749.33;;;705.30;;
4428;SDS011;2227;47.810;8.810;2023-10-31T13:00:18;739.75;;;697.95;;
4428;SDS011;2227;47.810;8.810;2023-10-31T13:02:51;751.43;;;706.93;;
4428;SDS011;2227;47.810;8.810;2023-10-31T13:05:25;745.80;;;701.83;;
4428;SDS011;2227;47.810;8.810;2023-10-31T13:07:53;743.67;;;699.07;;
4428;SDS011;2227;47.810;8.810;2023-10-31T13:10:25;741.72;;;698.13;;
4428;SDS011;2227;47.810;8.810;2023-10-31T13:12:53;746.43;;;701.40;;
4428;SDS011;2227;47.810;8.810;2023-10-31T13:15:20;742.45;;;696.95;;
4428;SDS011;2227;47.810;8.810;2023-10-31T13:17:49;737.05;;;691.70;;
4428;SDS011;2227;47.810;8.810;2023-10-31T13:20:17;732.50;;;687.50;;
4428;SDS011;2227;47.810;8.810;2023-10-31T13:22:45;726.83;;;682.92;;
4428;SDS011;2227;47.810;8.810;2023-10-31T13:25:12;736.05;;;691.00;;
4428;SDS011;2227;47.810;8.810;2023-10-31T13:27:41;735.25;;;689.22;;
4428;SDS011;2227;47.810;8.810;2023-10-31T13:30:12;724.05;;;678.45;;
4428;SDS011;2227;47.810;8.810;2023-10-31T13:32:40;719.40;;;674.27;;
4428;SDS011;2227;47.810;8.810;2023-10-31T13:35:07;718.28;;;672.28;;
4428;SDS011;2227;47.810;8.810;2023-10-31T13:37:38;719.85;;;675.00;;
4428;SDS011;2227;47.810;8.810;2023-10-31T13:40:05;714.57;;;669.00;;
4428;SDS011;2227;47.810;8.810;2023-10-31T13:42:35;715.90;;;670.53;;
4428;SDS011;2227;47.810;8.810;2023-10-31T13:45:02;713.65;;;669.25;;
4428;SDS011;2227;47.810;8.810;2023-10-31T13:47:32;721.38;;;675.88;;
4428;SDS011;2227;47.810;8.810;2023-10-31T13:49:59;725.30;;;679.60;;
4428;SDS011;2227;47.810;8.810;2023-10-31T13:52:26;716.70;;;671.63;;
4428;SDS011;2227;47.810;8.810;2023-10-31T13:54:53;720.67;;;676.75;;
4428;SDS011;2227;47.810;8.810;2023-10-31T13:57:19;715.42;;;671.75;;
4428;SDS011;2227;47.810;8.810;2023-10-31T13:59:46;720.00;;;676.70;;
4428;SDS011;2227;47.810;8.810;2023-10-31T14:02:13;720.58;;;678.83;;
4428;SDS011;2227;47.810;8.810;2023-10-31T14:04:40;731.35;;;686.17;;
4428;SDS011;2227;47.810;8.810;2023-10-31T14:07:07;717.80;;;676.40;;
4428;SDS011;2227;47.810;8.810;2023-10-31T14:09:34;717.63;;;677.43;;
4428;SDS011;2227;47.810;8.810;2023-10-31T14:12:00;722.63;;;681.53;;
4428;SDS011;2227;47.810;8.810;2023-10-31T14:14:27;724.90;;;683.67;;
4428;SDS011;2227;47.810;8.810;2023-10-31T14:16:54;726.28;;;683.38;;
4428;SDS011;2227;47.810;8.810;2023-10-31T14:19:20;728.53;;;685.25;;
4428;SDS011;2227;47.810;8.810;2023-10-31T14:21:47;719.33;;;678.42;;
4428;SDS011;2227;47.810;8.810;2023-10-31T14:24:15;731.08;;;685.78;;
4428;SDS011;2227;47.810;8.810;2023-10-31T14:26:42;730.10;;;684.80;;
4428;SDS011;2227;47.810;8.810;2023-10-31T14:29:10;713.08;;;669.10;;
4428;SDS011;2227;47.810;8.810;2023-10-31T14:31:38;729.97;;;684.70;;
4428;SDS011;2227;47.810;8.810;2023-10-31T14:34:08;724.45;;;680.17;;
4428;SDS011;2227;47.810;8.810;2023-10-31T14:36:35;729.55;;;684.40;;
4428;SDS011;2227;47.810;8.810;2023-10-31T14:39:02;724.13;;;678.63;;
4428;SDS011;2227;47.810;8.810;2023-10-31T14:41:31;715.92;;;671.03;;
4428;SDS011;2227;47.810;8.810;2023-10-31T14:44:00;719.05;;;673.95;;
4428;SDS011;2227;47.810;8.810;2023-10-31T14:46:28;714.15;;;670.20;;
4428;SDS011;2227;47.810;8.810;2023-10-31T14:48:55;720.88;;;676.33;;
4428;SDS011;2227;47.810;8.810;2023-10-31T14:51:22;718.95;;;674.78;;
4428;SDS011;2227;47.810;8.810;2023-10-31T14:53:49;710.85;;;666.83;;
4428;SDS011;2227;47.810;8.810;2023-10-31T14:56:16;713.72;;;669.90;;
4428;SDS011;2227;47.810;8.810;2023-10-31T14:58:43;715.90;;;671.67;;
4428;SDS011;2227;47.810;8.810;2023-10-31T15:01:10;718.40;;;674.03;;
4428;SDS011;2227;47.810;8.810;2023-10-31T15:03:37;711.67;;;668.07;;
4428;SDS011;2227;47.810;8.810;2023-10-31T15:06:04;708.53;;;665.95;;
4428;SDS011;2227;47.810;8.810;2023-10-31T15:08:31;718.15;;;673.83;;
4428;SDS011;2227;47.810;8.810;2023-10-31T15:10:58;719.15;;;674.38;;
4428;SDS011;2227;47.810;8.810;2023-10-31T15:13:25;717.22;;;672.63;;
4428;SDS011;2227;47.810;8.810;2023-10-31T15:15:52;718.38;;;673.13;;
4428;SDS011;2227;47.810;8.810;2023-10-31T15:18:19;723.97;;;678.03;;
4428;SDS011;2227;47.810;8.810;2023-10-31T15:20:46;717.03;;;671.58;;
4428;SDS011;2227;47.810;8.810;2023-10-31T15:23:13;711.00;;;665.50;;
4428;SDS011;2227;47.810;8.810;2023-10-31T15:25:41;715.05;;;668.85;;
4428;SDS011;2227;47.810;8.810;2023-10-31T15:28:07;717.22;;;672.05;;
4428;SDS011;2227;47.810;8.810;2023-10-31T15:30:34;720.35;;;674.05;;
4428;SDS011;2227;47.810;8.810;2023-10-31T15:33:01;713.97;;;668.10;;
4428;SDS011;2227;47.810;8.810;2023-10-31T15:35:28;717.33;;;671.22;;
4428;SDS011;2227;47.810;8.810;2023-10-31T15:37:54;721.05;;;675.78;;
4428;SDS011;2227;47.810;8.810;2023-10-31T15:40:21;719.38;;;673.67;;
4428;SDS011;2227;47.810;8.810;2023-10-31T15:42:48;721.25;;;675.88;;
4428;SDS011;2227;47.810;8.810;2023-10-31T15:45:14;722.50;;;677.17;;
4428;SDS011;2227;47.810;8.810;2023-10-31T15:47:41;716.60;;;670.60;;
4428;SDS011;2227;47.810;8.810;2023-10-31T15:50:08;714.38;;;669.38;;
4428;SDS011;2227;47.810;8.810;2023-10-31T15:52:35;525.00;;;477.00;;
4428;SDS011;2227;47.810;8.810;2023-10-31T15:55:02;657.28;;;618.70;;
4428;SDS011;2227;47.810;8.810;2023-10-31T15:57:29;668.97;;;633.78;;
4428;SDS011;2227;47.810;8.810;2023-10-31T15:59:56;645.38;;;608.35;;
4428;SDS011;2227;47.810;8.810;2023-10-31T16:02:25;664.22;;;630.03;;
4428;SDS011;2227;47.810;8.810;2023-10-31T16:04:52;640.85;;;608.75;;
4428;SDS011;2227;47.810;8.810;2023-10-31T16:07:18;649.65;;;615.78;;
4428;SDS011;2227;47.810;8.810;2023-10-31T16:09:46;654.83;;;620.33;;
4428;SDS011;2227;47.810;8.810;2023-10-31T16:12:13;640.92;;;607.08;;
4428;SDS011;2227;47.810;8.810;2023-10-31T16:14:41;651.75;;;615.42;;
4428;SDS011;2227;47.810;8.810;2023-10-31T16:17:08;638.17;;;604.63;;
4428;SDS011;2227;47.810;8.810;2023-10-31T16:19:35;644.78;;;610.30;;
4428;SDS011;2227;47.810;8.810;2023-10-31T16:22:02;649.45;;;614.38;;
4428;SDS011;2227;47.810;8.810;2023-10-31T16:24:28;640.05;;;608.10;;
4428;SDS011;2227;47.810;8.810;2023-10-31T16:26:55;652.15;;;617.65;;
4428;SDS011;2227;47.810;8.810;2023-10-31T16:29:22;645.67;;;611.70;;
4428;SDS011;2227;47.810;8.810;2023-10-31T16:31:48;647.33;;;614.50;;
4428;SDS011;2227;47.810;8.810;2023-10-31T16:34:15;652.45;;;617.35;;
4428;SDS011;2227;47.810;8.810;2023-10-31T16:36:43;653.15;;;616.78;;
4428;SDS011;2227;47.810;8.810;2023-10-31T16:39:10;671.80;;;635.33;;
4428;SDS011;2227;47.810;8.810;2023-10-31T16:41:37;651.65;;;616.80;;
4428;SDS011;2227;47.810;8.810;2023-10-31T16:44:04;668.42;;;632.22;;
4428;SDS011;2227;47.810;8.810;2023-10-31T16:46:31;654.47;;;618.73;;
4428;SDS011;2227;47.810;8.810;2023-10-31T16:48:58;642.60;;;603.38;;
4428;SDS011;2227;47.810;8.810;2023-10-31T16:51:26;664.47;;;623.65;;
4428;SDS011;2227;47.810;8.810;2023-10-31T16:53:53;660.83;;;618.88;;
4428;SDS011;2227;47.810;8.810;2023-10-31T16:56:19;654.10;;;610.70;;
4428;SDS011;2227;47.810;8.810;2023-10-31T16:58:47;642.63;;;602.05;;
4428;SDS011;2227;47.810;8.810;2023-10-31T17:01:14;628.17;;;586.95;;
4428;SDS011;2227;47.810;8.810;2023-10-31T17:03:41;612.80;;;583.22;;
4428;SDS011;2227;47.810;8.810;2023-10-31T17:06:08;638.93;;;595.53;;
4428;SDS011;2227;47.810;8.810;2023-10-31T17:08:38;612.27;;;577.80;;
4428;SDS011;2227;47.810;8.810;2023-10-31T17:11:05;613.88;;;570.88;;
4428;SDS011;2227;47.810;8.810;2023-10-31T17:13:33;604.67;;;561.80;;
4428;SDS011;2227;47.810;8.810;2023-10-31T17:16:00;600.92;;;556.45;;
4428;SDS011;2227;47.810;8.810;2023-10-31T17:18:29;583.03;;;536.33;;
4428;SDS011;2227;47.810;8.810;2023-10-31T17:20:56;616.05;;;576.70;;
4428;SDS011;2227;47.810;8.810;2023-10-31T17:23:23;596.90;;;558.83;;
4428;SDS011;2227;47.810;8.810;2023-10-31T17:25:50;594.40;;;551.78;;
4428;SDS011;2227;47.810;8.810;2023-10-31T17:28:18;618.58;;;577.60;;
4428;SDS011;2227;47.810;8.810;2023-10-31T17:30:45;598.85;;;559.35;;
4428;SDS011;2227;47.810;8.810;2023-10-31T17:33:12;596.70;;;553.80;;
4428;SDS011;2227;47.810;8.810;2023-10-31T17:35:40;610.67;;;568.78;;
4428;SDS011;2227;47.810;8.810;2023-10-31T17:38:07;588.95;;;546.35;;
4428;SDS011;2227;47.810;8.810;2023-10-31T17:40:34;583.75;;;546.35;;
4428;SDS011;2227;47.810;8.810;2023-10-31T17:43:01;597.43;;;550.70;;
4428;SDS011;2227;47.810;8.810;2023-10-31T17:45:28;600.50;;;551.53;;
4428;SDS011;2227;47.810;8.810;2023-10-31T17:47:55;633.25;;;587.30;;
4428;SDS011;2227;47.810;8.810;2023-10-31T17:50:22;647.70;;;597.83;;
4428;SDS011;2227;47.810;8.810;2023-10-31T17:52:49;618.45;;;570.85;;
4428;SDS011;2227;47.810;8.810;2023-10-31T17:55:16;624.88;;;578.08;;
4428;SDS011;2227;47.810;8.810;2023-10-31T17:57:45;635.25;;;587.65;;
4428;SDS011;2227;47.810;8.810;2023-10-31T18:00:12;629.80;;;582.60;;
4428;SDS011;2227;47.810;8.810;2023-10-31T18:02:41;628.10;;;578.90;;
4428;SDS011;2227;47.810;8.810;2023-10-31T18:05:08;607.22;;;561.28;;
4428;SDS011;2227;47.810;8.810;2023-10-31T18:07:36;626.58;;;580.20;;
4428;SDS011;2227;47.810;8.810;2023-10-31T18:10:03;624.50;;;579.15;;
4428;SDS011;2227;47.810;8.810;2023-10-31T18:12:31;611.20;;;566.28;;
4428;SDS011;2227;47.810;8.810;2023-10-31T18:14:57;630.38;;;584.28;;
4428;SDS011;2227;47.810;8.810;2023-10-31T18:17:24;634.40;;;588.30;;
4428;SDS011;2227;47.810;8.810;2023-10-31T18:19:51;636.58;;;587.50;;
4428;SDS011;2227;47.810;8.810;2023-10-31T18:22:18;634.33;;;587.65;;
4428;SDS011;2227;47.810;8.810;2023-10-31T18:24:46;659.43;;;613.83;;
4428;SDS011;2227;47.810;8.810;2023-10-31T18:27:13;641.03;;;591.97;;
4428;SDS011;2227;47.810;8.810;2023-10-31T18:29:39;626.13;;;577.25;;
4428;SDS011;2227;47.810;8.810;2023-10-31T18:32:06;628.33;;;579.70;;
4428;SDS011;2227;47.810;8.810;2023-10-31T18:34:33;616.80;;;570.75;;
4428;SDS011;2227;47.810;8.810;2023-10-31T18:36:59;621.15;;;574.28;;
4428;SDS011;2227;47.810;8.810;2023-10-31T18:39:26;613.78;;;570.25;;
4428;SDS011;2227;47.810;8.810;2023-10-31T18:41:53;623.38;;;586.28;;
4428;SDS011;2227;47.810;8.810;2023-10-31T18:44:34;621.05;;;583.75;;
4428;SDS011;2227;47.810;8.810;2023-10-31T18:47:15;616.85;;;576.90;;
4428;SDS011;2227;47.810;8.810;2023-10-31T18:49:42;636.53;;;590.50;;
4428;SDS011;2227;47.810;8.810;2023-10-31T18:52:09;627.60;;;589.20;;
4428;SDS011;2227;47.810;8.810;2023-10-31T18:54:35;632.88;;;591.95;;
4428;SDS011;2227;47.810;8.810;2023-10-31T18:57:02;645.97;;;607.92;;
4428;SDS011;2227;47.810;8.810;2023-10-31T18:59:29;664.05;;;617.97;;
4428;SDS011;2227;47.810;8.810;2023-10-31T19:01:59;664.40;;;619.83;;
4428;SDS011;2227;47.810;8.810;2023-10-31T19:04:27;670.13;;;625.92;;
4428;SDS011;2227;47.810;8.810;2023-10-31T19:06:54;659.63;;;614.13;;
4428;SDS011;2227;47.810;8.810;2023-10-31T19:09:21;645.13;;;598.33;;
4428;SDS011;2227;47.810;8.810;2023-10-31T19:11:47;648.58;;;601.60;;
4428;SDS011;2227;47.810;8.810;2023-10-31T19:14:14;643.90;;;595.70;;
4428;SDS011;2227;47.810;8.810;2023-10-31T19:16:42;642.22;;;595.00;;